Time;durP1;ratioP1;P1;durP2;ratioP2;P2;SDS_P1;SDS_P2;PMS_P1;PMS_P2;Temp;Humidity;BMP_temperature;BMP_pressure;BME280_temperature;BME280_humidity;BME280_pressure;Samples;Min_cycle;Max_cycle;Signal;HPM_P1;HPM_P2
2022/07/01 08:24:59;;;;;;;3.80;3.00;;;;;;;18.41;63.68;101117.63;5054763;27;20226;-67
2022/07/01 08:27:25;;;;;;;4.13;3.25;;;;;;;18.57;63.60;101119.34;4996672;27;20730;-68
2022/07/01 08:29:50;;;;;;;4.65;3.20;;;;;;;18.76;63.45;101118.00;4943615;28;20100;-67
2022/07/01 08:32:16;;;;;;;3.15;2.95;;;;;;;19.00;62.28;101126.88;4957724;28;20483;-68
2022/07/01 08:34:41;;;;;;;3.92;2.80;;;;;;;19.19;62.03;101131.69;4985029;28;20823;-69
2022/07/01 08:37:07;;;;;;;3.38;2.75;;;;;;;19.38;61.58;101140.22;4979250;28;20030;-68
2022/07/01 08:39:32;;;;;;;2.53;2.33;;;;;;;19.44;61.19;101149.38;4978663;28;20627;-68
2022/07/01 08:41:57;;;;;;;2.28;2.13;;;;;;;19.53;60.80;101141.03;4940910;28;20725;-68
2022/07/01 08:44:23;;;;;;;2.65;2.20;;;;;;;19.68;59.47;101146.38;4997537;28;20410;-68
2022/07/01 08:46:49;;;;;;;2.63;1.80;;;;;;;19.45;59.89;101145.69;4979970;28;20500;-68
2022/07/01 08:49:15;;;;;;;1.80;1.70;;;;;;;19.64;60.29;101149.63;4977978;28;20836;-68
2022/07/01 08:51:41;;;;;;;3.83;1.75;;;;;;;19.52;59.20;101144.72;4950688;28;20235;-71
2022/07/01 08:54:06;;;;;;;2.75;2.10;;;;;;;19.55;58.91;101148.91;4975472;28;20706;-69
2022/07/01 08:56:40;;;;;;;3.50;1.98;;;;;;;19.59;58.49;101141.28;4993759;28;20878;-69
2022/07/01 08:59:06;;;;;;;2.55;1.92;;;;;;;19.86;58.99;101143.31;4977413;28;20351;-68
2022/07/01 09:01:32;;;;;;;2.47;1.58;;;;;;;20.14;58.31;101142.63;4975738;28;20017;-69
2022/07/01 09:04:13;;;;;;;2.33;1.70;;;;;;;20.24;57.20;101128.88;4955851;28;20032;-69
2022/07/01 09:06:39;;;;;;;2.65;1.52;;;;;;;20.33;56.80;101133.06;4949971;28;20022;-70
2022/07/01 09:09:11;;;;;;;1.73;1.50;;;;;;;20.46;55.31;101134.22;4981356;28;20056;-69
2022/07/01 09:11:36;;;;;;;3.47;1.95;;;;;;;20.23;55.51;101137.94;4979863;28;20099;-68
2022/07/01 09:14:09;;;;;;;1.83;1.60;;;;;;;20.24;56.54;101132.38;4979958;28;20040;-68
2022/07/01 09:16:44;;;;;;;1.70;1.60;;;;;;;20.20;55.93;101138.34;4963151;28;20029;-69
2022/07/01 09:19:10;;;;;;;2.10;1.88;;;;;;;20.00;56.60;101146.19;4962477;28;20040;-67
2022/07/01 09:21:35;;;;;;;1.70;1.60;;;;;;;19.97;57.28;101138.50;4978901;28;20022;-67
2022/07/01 09:24:06;;;;;;;4.25;1.58;;;;;;;19.61;57.18;101147.31;4969545;28;21045;-67
2022/07/01 09:26:31;;;;;;;1.63;1.52;;;;;;;19.60;58.27;101145.66;4980442;28;21023;-68
2022/07/01 09:28:57;;;;;;;6.70;2.03;;;;;;;19.53;58.35;101146.41;5000051;28;20771;-68
2022/07/01 09:31:30;;;;;;;1.50;1.40;;;;;;;19.61;58.12;101158.88;4954873;28;20018;-68
2022/07/01 09:34:03;;;;;;;2.65;1.50;;;;;;;19.59;57.70;101157.41;4969046;28;20022;-68
2022/07/01 09:36:29;;;;;;;1.40;1.30;;;;;;;19.56;57.67;101147.88;4960829;28;20118;-68
2022/07/01 09:38:54;;;;;;;1.50;1.30;;;;;;;19.65;55.56;101148.63;4964767;28;21001;-68
2022/07/01 09:41:19;;;;;;;1.60;1.50;;;;;;;20.02;55.25;101161.09;4969709;28;20014;-69
2022/07/01 09:43:45;;;;;;;1.60;1.30;;;;;;;20.20;54.21;101159.81;4945336;28;20038;-68
2022/07/01 09:46:10;;;;;;;2.22;1.30;;;;;;;20.22;54.23;101152.41;4978387;28;20881;-68
2022/07/01 09:48:36;;;;;;;2.42;1.38;;;;;;;20.52;53.43;101163.88;4950099;28;20131;-68
2022/07/01 09:51:02;;;;;;;2.83;1.30;;;;;;;20.65;51.40;101155.09;4982824;28;20515;-68
2022/07/01 09:53:27;;;;;;;1.77;1.67;;;;;;;20.92;52.93;101152.66;4949916;28;20252;-68
2022/07/01 09:55:53;;;;;;;1.42;1.30;;;;;;;21.03;51.45;101165.56;4957899;28;20454;-67
2022/07/01 09:58:19;;;;;;;1.52;1.40;;;;;;;20.38;51.40;101152.16;4977193;28;20013;-68
2022/07/01 10:00:44;;;;;;;3.30;1.50;;;;;;;20.40;52.60;101160.88;4947430;28;20021;-68
2022/07/01 10:03:10;;;;;;;1.50;1.40;;;;;;;20.48;51.49;101156.41;4951492;28;20073;-69
2022/07/01 10:05:42;;;;;;;1.80;1.40;;;;;;;21.19;51.26;101159.03;4948971;28;20030;-67
2022/07/01 10:08:23;;;;;;;1.67;1.38;;;;;;;21.59;50.33;101159.31;4958778;28;20024;-68
2022/07/01 10:10:58;;;;;;;1.80;1.70;;;;;;;21.83;49.80;101159.84;4950083;28;20026;-68
2022/07/01 10:13:27;;;;;;;2.63;1.77;;;;;;;21.12;49.70;101166.25;4957711;28;20029;-68
2022/07/01 10:15:56;;;;;;;1.55;1.45;;;;;;;21.05;51.05;101174.28;4966752;28;20030;-68
2022/07/01 10:18:26;;;;;;;1.50;1.40;;;;;;;21.68;50.00;101168.06;4942078;28;21025;-68
2022/07/01 10:20:52;;;;;;;1.40;1.30;;;;;;;22.19;49.99;101164.09;4974147;28;20971;-68
2022/07/01 10:23:20;;;;;;;1.67;1.58;;;;;;;22.78;48.58;101167.09;4957774;28;20033;-67
2022/07/01 10:25:46;;;;;;;1.90;1.60;;;;;;;23.07;46.74;101155.06;4958749;28;20053;-69
2022/07/01 10:28:26;;;;;;;2.70;1.42;;;;;;;23.20;46.79;101158.81;4939156;28;20057;-69
2022/07/01 10:30:52;;;;;;;2.75;1.40;;;;;;;23.13;44.09;101153.41;4943171;28;20010;-68
2022/07/01 10:33:36;;;;;;;2.20;1.40;;;;;;;22.94;45.39;101160.44;4971614;28;20099;-67
2022/07/01 10:36:08;;;;;;;2.67;1.38;;;;;;;22.55;45.41;101152.16;4979976;28;20036;-68
2022/07/01 10:38:33;;;;;;;1.80;1.65;;;;;;;22.75;44.50;101157.56;4980630;28;20303;-68
2022/07/01 10:41:09;;;;;;;2.00;1.80;;;;;;;23.77;44.15;101159.84;4954117;28;20580;-68
2022/07/01 10:43:39;;;;;;;1.80;1.10;;;;;;;24.14;40.02;101164.69;4949202;28;20271;-68
2022/07/01 10:46:04;;;;;;;6.68;6.07;;;;;;;23.72;41.06;101164.25;4948858;28;20415;-68
2022/07/01 10:48:33;;;;;;;2.58;1.90;;;;;;;23.74;41.28;101164.88;4966804;28;20036;-66
2022/07/01 10:50:58;;;;;;;2.60;1.30;;;;;;;23.33;41.22;101164.16;4955595;28;20025;-65
2022/07/01 10:53:24;;;;;;;2.05;1.50;;;;;;;23.86;40.60;101155.06;4962474;28;20030;-67
2022/07/01 10:55:51;;;;;;;2.88;1.52;;;;;;;24.14;40.40;101164.69;4972391;28;20036;-68
2022/07/01 10:58:18;;;;;;;2.33;1.60;;;;;;;23.87;40.04;101162.13;4971815;28;20962;-67
2022/07/01 11:00:47;;;;;;;2.17;1.63;;;;;;;23.18;41.85;101156.28;4964546;28;20025;-68
2022/07/01 11:03:20;;;;;;;2.17;1.70;;;;;;;23.74;42.17;101145.97;4968541;28;20655;-68
2022/07/01 11:05:47;;;;;;;1.70;1.60;;;;;;;23.24;41.86;101150.06;4966715;28;20110;-67
2022/07/01 11:08:13;;;;;;;4.03;1.38;;;;;;;22.68;42.18;101147.81;4940711;28;20002;-68
2022/07/01 11:10:39;;;;;;;4.30;1.50;;;;;;;22.43;42.60;101153.78;4969471;28;20101;-68
2022/07/01 11:13:05;;;;;;;1.40;1.30;;;;;;;22.34;45.27;101149.66;4975382;28;20379;-68
2022/07/01 11:15:31;;;;;;;3.08;1.42;;;;;;;22.18;43.59;101157.06;4957681;28;20167;-66
2022/07/01 11:17:57;;;;;;;1.77;1.67;;;;;;;21.92;45.12;101161.31;4948832;28;20447;-68
2022/07/01 11:20:23;;;;;;;3.22;1.70;;;;;;;21.73;44.89;101162.06;4958326;28;20021;-66
2022/07/01 11:22:49;;;;;;;1.75;1.50;;;;;;;22.55;43.54;101154.00;4929316;28;20002;-67
2022/07/01 11:25:14;;;;;;;2.15;2.00;;;;;;;23.11;43.56;101147.34;4929136;28;20394;-68
2022/07/01 11:27:40;;;;;;;3.50;1.63;;;;;;;23.28;43.88;101154.00;4942702;28;20630;-71
2022/07/01 11:30:11;;;;;;;2.60;1.45;;;;;;;22.85;42.78;101162.53;4946183;28;20121;-75
2022/07/01 11:32:41;;;;;;;6.50;1.17;;;;;;;22.80;43.83;101154.22;4942556;28;20019;-75
2022/07/01 11:39:21;;;;;;;2.53;1.25;;;;;;;23.43;43.83;101147.53;4931471;28;20007;-70
2022/07/01 11:40:48;;;;;;;2.08;1.00;;;;;;;24.64;41.05;101147.75;4921948;28;20868;-73
2022/07/01 11:43:24;;;;;;;2.10;1.70;;;;;;;25.48;41.04;101147.34;4945167;28;20058;-73
2022/07/01 11:45:49;;;;;;;2.88;1.63;;;;;;;25.76;39.37;101143.28;4927992;28;20289;-74
2022/07/01 11:48:40;;;;;;;1.85;1.20;;;;;;;25.00;39.72;101148.88;4940802;28;20461;-73
2022/07/01 11:51:11;;;;;;;1.38;1.20;;;;;;;24.06;40.88;101154.16;4957178;28;20134;-73
2022/07/01 11:53:37;;;;;;;2.72;1.13;;;;;;;23.84;41.25;101151.72;4952824;28;20353;-75
2022/07/01 11:56:03;;;;;;;1.33;1.00;;;;;;;23.86;41.60;101144.25;4936201;28;20014;-72
2022/07/01 11:58:48;;;;;;;1.50;1.10;;;;;;;23.40;42.35;101137.97;4950195;28;20334;-74
2022/07/01 12:01:29;;;;;;;1.30;1.00;;;;;;;23.43;43.26;101144.81;4950995;28;20090;-72
2022/07/01 12:03:56;;;;;;;1.10;1.00;;;;;;;23.54;42.24;101140.63;4969497;28;20033;-73
2022/07/01 12:06:23;;;;;;;0.95;0.95;;;;;;;23.92;42.54;101134.47;4951616;28;20133;-72
2022/07/01 12:08:49;;;;;;;1.60;1.00;;;;;;;23.88;43.89;101131.34;4969846;28;20290;-75
2022/07/01 12:11:15;;;;;;;1.13;1.02;;;;;;;23.52;41.37;101134.59;4934662;28;20036;-75
2022/07/01 12:13:41;;;;;;;1.83;1.00;;;;;;;23.30;43.06;101134.88;4953792;28;20143;-73
2022/07/01 12:16:10;;;;;;;1.85;1.08;;;;;;;23.32;41.98;101136.34;4950088;28;20951;-74
2022/07/01 12:18:36;;;;;;;1.50;1.00;;;;;;;23.93;42.38;101145.06;4943559;28;20676;-72
2022/07/01 12:21:01;;;;;;;1.00;0.95;;;;;;;24.81;39.82;101142.59;4945241;28;20058;-73
2022/07/01 12:23:27;;;;;;;1.63;0.90;;;;;;;25.73;38.15;101135.59;4937951;28;20155;-74
2022/07/01 12:25:54;;;;;;;0.90;0.90;;;;;;;26.16;37.53;101126.50;4924920;28;20238;-72
2022/07/01 12:28:47;;;;;;;1.55;1.00;;;;;;;25.42;37.31;101138.25;4946307;28;20061;-73
2022/07/01 12:31:13;;;;;;;2.55;1.00;;;;;;;24.42;39.02;101136.44;4955918;28;20780;-74
2022/07/01 12:33:39;;;;;;;1.80;1.67;;;;;;;24.13;39.89;101147.66;4949865;28;20033;-72
2022/07/01 12:36:06;;;;;;;1.25;1.23;;;;;;;23.87;40.97;101154.00;4946677;28;20752;-73
2022/07/01 12:38:32;;;;;;;0.95;0.88;;;;;;;23.67;41.10;101146.78;4951305;28;20985;-74
2022/07/01 12:40:57;;;;;;;0.70;0.65;;;;;;;23.69;42.44;101145.75;4950328;28;20033;-72
2022/07/01 12:43:29;;;;;;;0.80;0.70;;;;;;;23.92;41.05;101148.00;4949485;28;20014;-74
2022/07/01 12:45:58;;;;;;;3.05;0.70;;;;;;;23.88;41.33;101144.06;4934501;28;20015;-71
2022/07/01 12:48:23;;;;;;;1.45;0.90;;;;;;;23.81;41.35;101154.84;4944588;28;20031;-71
2022/07/01 12:50:52;;;;;;;0.70;0.70;;;;;;;23.84;39.34;101149.00;4923743;28;20710;-73
2022/07/01 12:53:18;;;;;;;1.05;0.90;;;;;;;24.31;38.62;101143.38;4941193;28;20117;-73
2022/07/01 12:55:47;;;;;;;1.13;0.52;;;;;;;24.40;37.81;101146.66;4945208;28;20429;-73
2022/07/01 12:58:17;;;;;;;2.80;0.60;;;;;;;23.91;37.58;101146.31;4948424;28;20464;-73
2022/07/01 13:00:44;;;;;;;1.00;0.70;;;;;;;23.70;38.51;101142.03;4957884;28;20517;-70
2022/07/01 13:03:10;;;;;;;3.03;0.80;;;;;;;24.36;38.02;101143.53;4975489;28;20427;-74
2022/07/01 13:05:36;;;;;;;1.60;0.70;;;;;;;25.24;38.29;101140.94;4939597;28;20126;-70
2022/07/01 13:08:02;;;;;;;1.30;0.77;;;;;;;25.98;36.03;101136.28;4973628;28;20809;-73
2022/07/01 13:10:27;;;;;;;1.35;0.60;;;;;;;25.48;35.11;101137.38;4967371;28;20075;-75
2022/07/01 13:12:53;;;;;;;0.70;0.70;;;;;;;26.08;37.81;101140.38;4974664;28;20022;-71
2022/07/01 13:15:19;;;;;;;1.42;0.90;;;;;;;26.28;33.96;101140.88;4962449;28;20698;-72
2022/07/01 13:17:44;;;;;;;1.98;0.80;;;;;;;26.31;35.28;101135.00;4966239;28;20010;-69
2022/07/01 13:20:10;;;;;;;1.25;0.45;;;;;;;26.25;32.03;101141.38;4964813;28;20050;-72
2022/07/01 13:22:36;;;;;;;0.70;0.70;;;;;;;25.73;34.05;101141.84;4964681;28;20006;-72
2022/07/01 13:25:01;;;;;;;2.03;1.80;;;;;;;25.69;33.89;101144.19;4960802;28;20896;-72
2022/07/01 13:27:27;;;;;;;2.05;0.88;;;;;;;26.01;33.21;101151.31;4951882;28;20018;-70
2022/07/01 13:29:53;;;;;;;0.82;0.70;;;;;;;26.59;31.38;101147.09;4960545;28;20021;-73
2022/07/01 13:32:18;;;;;;;2.47;0.63;;;;;;;26.57;30.70;101143.78;4947344;28;20145;-72
2022/07/01 13:34:44;;;;;;;0.65;0.50;;;;;;;26.50;33.21;101153.94;4972254;28;20093;-74
2022/07/01 13:37:10;;;;;;;0.82;0.77;;;;;;;25.84;33.14;101151.09;4994053;28;20457;-74
2022/07/01 13:39:35;;;;;;;1.13;0.70;;;;;;;25.05;33.71;101159.06;4978086;28;20014;-73
2022/07/01 13:42:01;;;;;;;1.00;0.55;;;;;;;25.61;33.72;101157.22;4969585;28;20018;-71
2022/07/01 13:44:26;;;;;;;0.85;0.60;;;;;;;26.13;34.56;101145.91;4973497;28;20026;-72
2022/07/01 13:46:52;;;;;;;1.25;0.70;;;;;;;26.55;35.46;101151.31;4958819;28;20038;-73
2022/07/01 13:49:17;;;;;;;0.60;0.60;;;;;;;26.10;33.09;101158.09;4939578;28;20650;-75
2022/07/01 13:51:43;;;;;;;2.35;0.73;;;;;;;25.14;34.11;101155.00;4959457;28;20034;-72
2022/07/01 13:54:08;;;;;;;0.82;0.68;;;;;;;25.33;34.85;101162.13;4958483;28;20343;-71
2022/07/01 13:56:34;;;;;;;1.65;0.50;;;;;;;25.45;35.12;101155.94;4954267;28;20010;-71
2022/07/01 13:59:00;;;;;;;0.93;0.68;;;;;;;25.87;35.88;101161.47;4956154;28;20412;-73
2022/07/01 14:01:25;;;;;;;0.80;0.70;;;;;;;25.58;34.49;101172.06;4947409;28;20006;-71
2022/07/01 14:03:51;;;;;;;0.77;0.60;;;;;;;25.99;35.66;101172.38;4969516;28;20713;-73
2022/07/01 14:06:17;;;;;;;0.73;0.60;;;;;;;26.68;35.55;101156.56;4990948;28;20869;-73
2022/07/01 14:08:43;;;;;;;0.55;0.50;;;;;;;26.15;34.70;101169.03;4972063;28;20028;-73
2022/07/01 14:11:08;;;;;;;0.50;0.50;;;;;;;25.41;35.15;101174.56;4969124;28;20365;-71
2022/07/01 14:13:37;;;;;;;0.50;0.50;;;;;;;25.76;33.52;101170.38;4985544;28;20069;-72
2022/07/01 14:16:04;;;;;;;1.55;0.70;;;;;;;25.40;34.09;101177.44;4972786;28;20018;-72
2022/07/01 14:18:30;;;;;;;3.17;1.15;;;;;;;25.55;34.17;101169.78;4957824;28;20238;-74
2022/07/01 14:20:55;;;;;;;0.88;0.88;;;;;;;26.27;33.31;101169.09;4953475;28;20800;-72
2022/07/01 14:23:21;;;;;;;0.52;0.50;;;;;;;26.55;33.15;101170.31;4970166;28;20042;-74
2022/07/01 14:25:47;;;;;;;0.60;0.57;;;;;;;26.87;31.61;101164.63;4969954;28;20121;-74
2022/07/01 14:28:12;;;;;;;1.02;0.60;;;;;;;26.35;31.82;101159.78;4954317;28;20018;-73
2022/07/01 14:30:38;;;;;;;0.93;0.85;;;;;;;25.87;32.98;101172.31;4973192;28;20042;-73
2022/07/01 14:33:04;;;;;;;0.55;0.55;;;;;;;25.35;34.60;101176.28;4974961;28;20962;-73
2022/07/01 14:35:29;;;;;;;1.52;0.60;;;;;;;25.30;35.29;101178.78;4969334;28;20010;-72
2022/07/01 14:37:55;;;;;;;0.75;0.50;;;;;;;25.99;34.81;101180.50;4973712;28;20017;-74
2022/07/01 14:40:21;;;;;;;2.58;0.40;;;;;;;26.49;35.27;101174.81;4970927;28;20017;-73
2022/07/01 14:42:47;;;;;;;2.00;0.60;;;;;;;26.45;33.49;101168.19;4973302;28;20104;-70
2022/07/01 14:45:13;;;;;;;0.50;0.50;;;;;;;25.96;34.03;101172.81;4970016;28;20022;-72
2022/07/01 14:47:39;;;;;;;2.35;1.20;;;;;;;25.78;33.34;101176.38;4952077;28;20037;-74
2022/07/01 14:50:05;;;;;;;1.30;0.95;;;;;;;25.60;33.39;101182.69;4968306;28;20596;-73
2022/07/01 14:52:31;;;;;;;2.78;0.70;;;;;;;26.14;34.12;101180.13;4936085;28;20045;-72
2022/07/01 14:54:57;;;;;;;2.83;0.60;;;;;;;26.48;32.30;101177.75;4963000;28;20595;-74
2022/07/01 14:57:22;;;;;;;0.47;0.47;;;;;;;26.77;32.46;101177.97;4971680;28;21035;-72
2022/07/01 14:59:48;;;;;;;1.13;0.80;;;;;;;26.45;33.30;101186.38;4968939;28;20022;-71
2022/07/01 15:02:13;;;;;;;0.70;0.68;;;;;;;26.85;33.60;101175.72;4954807;28;20916;-75
2022/07/01 15:04:40;;;;;;;1.15;0.52;;;;;;;26.79;30.07;101190.22;4952411;28;20374;-74
2022/07/01 15:07:06;;;;;;;0.40;0.40;;;;;;;26.83;30.10;101185.16;4970522;28;20917;-73
2022/07/01 15:09:31;;;;;;;2.72;0.68;;;;;;;26.77;30.40;101186.94;4988440;28;20014;-71
2022/07/01 15:11:57;;;;;;;0.47;0.40;;;;;;;26.90;31.32;101186.69;4967390;28;19994;-75
2022/07/01 15:14:23;;;;;;;0.82;0.57;;;;;;;27.19;31.44;101194.97;4979749;28;20302;-75
2022/07/01 15:16:48;;;;;;;0.40;0.40;;;;;;;27.04;29.15;101203.59;4967269;28;20014;-75
2022/07/01 15:19:14;;;;;;;2.38;2.28;;;;;;;26.80;29.38;101191.88;4974051;28;20492;-74
2022/07/01 15:21:39;;;;;;;0.75;0.75;;;;;;;26.88;30.03;101199.69;4952508;28;20117;-74
2022/07/01 15:24:05;;;;;;;0.57;0.57;;;;;;;27.26;30.48;101203.00;4987584;28;20520;-73
2022/07/01 15:26:30;;;;;;;3.13;0.60;;;;;;;27.07;29.82;101186.84;4968678;28;20022;-72
2022/07/01 15:28:56;;;;;;;1.95;0.60;;;;;;;27.12;29.93;101190.72;4985516;28;20014;-74
2022/07/01 15:31:21;;;;;;;1.48;0.60;;;;;;;27.22;32.61;101188.25;4962632;28;20024;-71
2022/07/01 15:33:47;;;;;;;1.50;0.70;;;;;;;27.47;32.00;101184.44;4953833;28;20351;-73
2022/07/01 15:36:13;;;;;;;1.80;0.60;;;;;;;27.40;30.57;101196.28;4964616;28;20272;-73
2022/07/01 15:38:38;;;;;;;1.67;0.60;;;;;;;27.28;30.38;101197.34;4950340;28;20314;-73
2022/07/01 15:41:06;;;;;;;0.73;0.50;;;;;;;26.79;30.88;101194.84;4969735;28;20017;-71
2022/07/01 15:43:31;;;;;;;0.50;0.50;;;;;;;26.76;30.99;101206.16;4962300;28;20037;-73
2022/07/01 15:45:57;;;;;;;4.43;4.10;;;;;;;26.81;31.31;101201.69;4967542;28;20087;-74
2022/07/01 15:48:22;;;;;;;11.65;8.73;;;;;;;26.30;32.26;101209.34;4970621;28;20018;-72
2022/07/01 15:50:49;;;;;;;1.83;1.73;;;;;;;26.26;32.70;101202.72;4965128;28;20022;-74
2022/07/01 15:53:15;;;;;;;1.08;0.98;;;;;;;26.46;33.38;101204.31;4966747;28;20278;-73
2022/07/01 15:55:42;;;;;;;0.50;0.50;;;;;;;26.39;33.25;101202.50;4945370;28;20013;-73
2022/07/01 15:58:12;;;;;;;0.60;0.60;;;;;;;26.02;33.17;101212.63;4952373;28;20462;-73
2022/07/01 16:00:40;;;;;;;0.68;0.60;;;;;;;25.93;33.92;101203.13;4954972;28;20117;-73
2022/07/01 16:03:06;;;;;;;0.77;0.60;;;;;;;26.33;33.27;101205.34;4969969;28;20006;-75
2022/07/01 16:05:33;;;;;;;1.50;0.60;;;;;;;26.77;33.51;101205.13;4967294;28;20029;-73
2022/07/01 16:08:02;;;;;;;1.40;0.60;;;;;;;26.78;31.77;101202.16;4971517;28;20040;-72
2022/07/01 16:10:40;;;;;;;1.13;0.70;;;;;;;26.77;33.19;101202.41;4968412;28;20371;-71
2022/07/01 16:13:06;;;;;;;0.38;0.38;;;;;;;26.99;33.16;101205.34;4965132;28;20037;-74
2022/07/01 16:15:33;;;;;;;0.93;0.60;;;;;;;27.27;32.66;101218.22;4969818;28;20536;-72
2022/07/01 16:17:59;;;;;;;2.70;1.02;;;;;;;26.88;32.18;101207.84;4971924;28;20006;-72
2022/07/01 16:20:24;;;;;;;1.27;0.70;;;;;;;26.79;31.15;101206.50;4966632;28;20014;-71
2022/07/01 16:22:50;;;;;;;0.77;0.50;;;;;;;26.49;31.93;101204.66;4986990;28;20783;-71
2022/07/01 16:25:16;;;;;;;0.50;0.50;;;;;;;26.00;31.07;101202.00;4965964;28;20360;-72
2022/07/01 16:27:42;;;;;;;1.73;0.60;;;;;;;26.20;31.72;101198.19;4972499;28;20466;-75
2022/07/01 16:30:08;;;;;;;0.98;0.50;;;;;;;26.54;31.60;101204.81;4959580;28;20852;-72
2022/07/01 16:32:34;;;;;;;0.85;0.60;;;;;;;26.71;31.82;101207.69;4944436;28;20009;-74
2022/07/01 16:35:00;;;;;;;1.77;0.88;;;;;;;26.81;32.60;101209.84;4953683;28;20376;-73
2022/07/01 16:37:31;;;;;;;0.40;0.40;;;;;;;26.75;32.15;101205.34;4960367;28;20015;-72
2022/07/01 16:39:59;;;;;;;2.15;0.55;;;;;;;26.89;31.43;101205.94;4971921;28;20572;-74
2022/07/01 16:42:25;;;;;;;0.40;0.40;;;;;;;27.12;31.39;101204.28;4971876;28;20408;-74
2022/07/01 16:44:57;;;;;;;0.50;0.50;;;;;;;26.98;32.56;101207.25;4954553;28;20637;-72
2022/07/01 16:47:38;;;;;;;0.50;0.50;;;;;;;26.83;32.40;101212.31;4990327;28;20185;-75
2022/07/01 16:50:08;;;;;;;0.70;0.52;;;;;;;26.44;31.38;101215.41;4985395;28;20493;-73
2022/07/01 16:52:38;;;;;;;0.50;0.50;;;;;;;26.19;32.58;101210.94;4967738;28;20266;-72
2022/07/01 16:55:07;;;;;;;0.65;0.60;;;;;;;26.26;31.82;101208.13;4969657;28;20117;-72
2022/07/01 16:57:36;;;;;;;1.08;0.70;;;;;;;26.19;32.63;101208.22;4989904;28;20026;-72
2022/07/01 17:00:11;;;;;;;1.55;0.50;;;;;;;26.17;33.39;101215.78;4968359;28;20041;-75
2022/07/01 17:02:37;;;;;;;1.33;0.50;;;;;;;25.56;32.56;101209.38;4977125;28;20045;-71
2022/07/01 17:05:03;;;;;;;1.38;0.60;;;;;;;25.28;33.25;101212.56;4973200;28;20624;-72
2022/07/01 17:07:28;;;;;;;0.50;0.50;;;;;;;25.13;33.45;101218.31;4974288;28;20531;-73
2022/07/01 17:09:54;;;;;;;0.50;0.50;;;;;;;25.13;34.07;101221.88;4986809;28;20021;-73
2022/07/01 17:12:19;;;;;;;0.60;0.60;;;;;;;25.21;33.99;101218.03;4955579;28;21095;-72
2022/07/01 17:14:45;;;;;;;1.85;0.60;;;;;;;24.99;32.89;101225.75;4980877;28;20025;-72
2022/07/01 17:17:19;;;;;;;0.82;0.50;;;;;;;24.56;33.86;101221.03;4956684;28;20014;-75
2022/07/01 17:19:45;;;;;;;0.75;0.63;;;;;;;24.49;33.69;101226.50;4974074;28;20113;-72
2022/07/01 17:22:34;;;;;;;2.85;0.70;;;;;;;24.35;35.30;101232.00;4971397;28;20025;-74
2022/07/01 17:25:00;;;;;;;0.93;0.60;;;;;;;24.26;35.46;101230.56;4975796;28;20545;-74
2022/07/01 17:27:39;;;;;;;0.40;0.40;;;;;;;24.08;34.49;101230.47;4994839;28;20359;-72
2022/07/01 17:30:05;;;;;;;1.30;0.60;;;;;;;23.71;34.74;101238.25;4979339;28;20002;-74
2022/07/01 17:32:38;;;;;;;3.35;0.47;;;;;;;23.62;35.38;101237.63;4981727;28;20533;-73
2022/07/01 17:35:03;;;;;;;1.00;0.50;;;;;;;23.71;35.67;101249.06;4972018;28;20026;-73
2022/07/01 17:37:29;;;;;;;0.40;0.40;;;;;;;23.67;35.39;101244.06;4989090;28;20894;-74
2022/07/01 17:39:59;;;;;;;0.75;0.50;;;;;;;23.53;35.56;101247.84;4975469;28;20750;-74
2022/07/01 17:42:24;;;;;;;1.38;0.55;;;;;;;23.48;35.88;101247.66;4993347;28;20266;-75
2022/07/01 17:44:50;;;;;;;1.10;0.60;;;;;;;23.31;35.49;101249.97;4955244;28;20148;-72
2022/07/01 17:47:15;;;;;;;0.50;0.50;;;;;;;23.21;36.25;101253.09;4969500;28;20807;-73
2022/07/01 17:49:41;;;;;;;1.00;0.52;;;;;;;23.10;36.42;101246.41;4969098;28;20018;-73
2022/07/01 17:52:07;;;;;;;0.50;0.50;;;;;;;23.07;36.58;101256.78;4986852;28;20457;-73
2022/07/01 17:54:33;;;;;;;3.05;0.50;;;;;;;23.03;36.79;101263.63;4949360;28;20002;-75
2022/07/01 17:56:58;;;;;;;0.75;0.75;;;;;;;22.90;36.51;101262.59;4984996;28;20018;-75
2022/07/01 17:59:24;;;;;;;1.50;0.70;;;;;;;22.85;36.48;101256.97;4988382;28;20026;-75
2022/07/01 18:01:49;;;;;;;1.15;0.70;;;;;;;22.80;36.50;101251.34;4968846;28;20336;-73
2022/07/01 18:04:16;;;;;;;2.22;0.60;;;;;;;22.78;37.09;101253.44;5008128;28;20144;-74
2022/07/01 18:06:42;;;;;;;0.50;0.50;;;;;;;22.60;36.72;101262.97;4971275;28;20029;-75
2022/07/01 18:09:07;;;;;;;0.52;0.52;;;;;;;22.49;37.58;101266.22;4980094;28;20007;-75
2022/07/01 18:11:57;;;;;;;0.93;0.60;;;;;;;22.45;37.50;101265.81;4978934;28;20563;-75
2022/07/01 18:14:35;;;;;;;0.90;0.70;;;;;;;22.40;36.86;101267.47;4982387;28;20821;-74
2022/07/01 18:17:10;;;;;;;2.20;0.70;;;;;;;22.18;36.91;101266.72;4969918;28;20142;-72
2022/07/01 18:19:47;;;;;;;0.52;0.52;;;;;;;22.01;37.53;101271.63;4984161;27;20294;-73
2022/07/01 18:22:18;;;;;;;0.80;0.50;;;;;;;21.90;37.92;101270.31;4985305;28;20026;-75
2022/07/01 18:24:47;;;;;;;0.50;0.50;;;;;;;21.98;38.33;101272.03;4970581;28;20046;-74
2022/07/01 18:27:13;;;;;;;1.60;1.10;;;;;;;22.08;38.22;101264.41;4987006;28;20022;-73
2022/07/01 18:29:40;;;;;;;0.90;0.85;;;;;;;22.05;38.64;101275.59;4967275;28;20020;-74
2022/07/01 18:32:06;;;;;;;0.80;0.50;;;;;;;21.90;38.41;101273.88;4956011;28;20169;-74
2022/07/01 18:34:54;;;;;;;0.60;0.60;;;;;;;21.92;38.61;101279.88;4972076;28;20504;-72
2022/07/01 18:37:20;;;;;;;0.52;0.52;;;;;;;21.87;38.15;101285.03;4990149;28;20278;-74
2022/07/01 18:39:46;;;;;;;0.70;0.70;;;;;;;21.84;38.42;101285.41;4959024;28;20171;-72
2022/07/01 18:42:11;;;;;;;0.60;0.60;;;;;;;21.88;38.60;101283.16;4977351;28;20229;-75
2022/07/01 18:44:36;;;;;;;1.77;0.70;;;;;;;21.92;38.74;101279.88;4975162;28;20149;-73
2022/07/01 18:47:02;;;;;;;0.60;0.60;;;;;;;21.88;38.96;101283.16;4985501;28;20013;-71
2022/07/01 18:49:33;;;;;;;2.70;0.80;;;;;;;21.74;39.06;101287.66;4980633;28;20014;-69
2022/07/01 18:51:59;;;;;;;0.65;0.60;;;;;;;21.62;39.37;101287.38;4979024;28;20355;-67
2022/07/01 18:54:25;;;;;;;2.20;0.70;;;;;;;21.39;39.52;101295.66;4975862;28;20018;-65
2022/07/01 18:56:53;;;;;;;2.15;0.70;;;;;;;21.37;39.02;101305.78;4981004;28;20090;-69
2022/07/01 18:59:19;;;;;;;1.65;0.63;;;;;;;21.23;39.40;101302.97;4981959;28;20702;-68
2022/07/01 19:01:45;;;;;;;0.70;0.70;;;;;;;21.14;40.15;101304.16;4975579;28;20048;-67
2022/07/01 19:04:10;;;;;;;0.60;0.60;;;;;;;21.02;40.28;101308.38;4979635;28;20042;-67
2022/07/01 19:06:36;;;;;;;0.65;0.65;;;;;;;21.06;40.83;101309.66;4968379;28;20471;-67
2022/07/01 19:09:02;;;;;;;0.85;0.70;;;;;;;20.93;40.87;101311.19;4967570;28;20022;-66
2022/07/01 19:11:27;;;;;;;0.60;0.60;;;;;;;20.83;42.60;101299.91;4988524;28;20018;-68
2022/07/01 19:13:52;;;;;;;0.60;0.60;;;;;;;20.75;41.25;101316.16;4981508;28;20022;-66
2022/07/01 19:16:18;;;;;;;1.13;0.90;;;;;;;20.57;41.98;101312.03;4976299;28;20060;-69
2022/07/01 19:18:43;;;;;;;0.73;0.73;;;;;;;20.58;42.40;101316.34;4969261;28;20177;-68
2022/07/01 19:21:09;;;;;;;1.63;1.10;;;;;;;20.61;42.62;101317.03;4983598;27;20022;-67
2022/07/01 19:23:34;;;;;;;1.50;1.30;;;;;;;20.50;42.58;101323.72;4949472;28;20542;-68
2022/07/01 19:26:00;;;;;;;0.85;0.85;;;;;;;20.33;42.40;101328.47;4979905;28;20021;-67
2022/07/01 19:28:26;;;;;;;0.80;0.80;;;;;;;20.21;44.70;101333.50;4966755;28;20746;-67
2022/07/01 19:30:51;;;;;;;4.15;1.08;;;;;;;20.12;45.68;101331.91;4979109;28;20032;-66
2022/07/01 19:33:17;;;;;;;1.85;1.10;;;;;;;19.99;46.43;101340.63;4968714;28;20018;-67
2022/07/01 19:35:42;;;;;;;1.38;1.20;;;;;;;19.92;46.36;101339.69;4976361;28;20014;-67
2022/07/01 19:38:09;;;;;;;1.33;1.23;;;;;;;19.90;47.34;101338.00;4982514;28;20038;-67
2022/07/01 19:40:35;;;;;;;1.58;1.30;;;;;;;19.94;47.31;101337.63;4949585;28;20125;-68
2022/07/01 19:43:00;;;;;;;1.42;1.30;;;;;;;19.88;47.84;101337.38;4965085;28;20026;-68
2022/07/01 19:45:26;;;;;;;1.23;1.20;;;;;;;19.75;48.78;101350.56;4967138;28;20951;-68
2022/07/01 19:47:51;;;;;;;2.92;1.38;;;;;;;19.62;49.84;101344.97;4963745;28;21290;-69
2022/07/01 19:50:17;;;;;;;2.55;1.30;;;;;;;19.43;51.03;101340.94;4965419;28;20463;-69
2022/07/01 19:52:42;;;;;;;1.00;1.00;;;;;;;19.39;51.52;101364.63;4965706;28;20056;-66